Date,TemperatureHighF,TemperatureAvgF,TemperatureLowF,DewpointHighF,DewpointAvgF,DewpointLowF,HumidityHigh,HumidityAvg,HumidityLow,PressureMaxIn,PressureMinIn,WindSpeedMaxMPH,WindSpeedAvgMPH,GustSpeedMaxMPH,PrecipitationSumIn
2013-1-1,34.0,22.2,13.4,17.0,9.3,3.0,86,61,36,30.20,30.03,8,1,0,0.00
2013-1-2,36.7,25.9,15.3,16.0,8.4,4.0,63,48,31,30.26,30.06,11,2,0,0.00
2013-1-3,38.8,25.1,12.0,8.0,3.5,0.0,64,42,21,30.36,30.12,8,1,0,0.00
2013-1-4,52.6,33.8,20.0,15.0,10.0,4.0,54,39,21,30.16,29.84,8,1,0,0.00
2013-1-5,41.0,28.9,21.5,17.0,12.2,7.0,70,51,35,30.25,29.87,9,1,0,0.00
2013-1-6,56.4,36.0,18.7,17.0,10.5,1.0,71,38,15,30.19,29.67,8,0,0,0.00
2013-1-7,55.0,41.6,31.2,19.0,11.7,8.0,59,31,17,29.91,29.61,11,2,0,0.00
2013-1-8,53.8,45.4,31.6,21.0,17.2,7.0,58,33,24,30.00,29.49,14,4,0,0.00
2013-1-9,63.9,41.4,27.3,23.0,17.9,14.0,60,41,18,30.16,29.76,14,2,0,0.00
2013-1-10,46.7,37.7,29.5,27.0,16.7,11.0,60,43,29,29.76,29.21,13,1,0,0.00
2013-1-11,44.9,30.8,16.1,26.0,16.5,1.0,89,59,27,29.68,29.02,25,4,0,0.00
2013-1-12,20.4,9.7,4.5,15.0,4.5,-1.0,92,80,39,30.18,29.70,6,1,0,0.00
2013-1-13,21.7,10.0,3.2,14.0,2.5,-2.0,92,72,53,30.30,30.11,7,1,0,0.00
2013-1-14,20.8,10.2,4.0,14.0,2.7,-1.0,88,72,51,30.34,30.14,8,0,0,0.00
2013-1-15,31.4,19.3,1.9,14.0,5.0,-4.0,79,57,38,30.28,30.07,9,2,0,0.00
2013-1-16,52.9,37.8,23.1,23.0,19.1,14.0,67,49,31,30.23,29.97,11,2,0,0.00
2013-1-17,52.0,38.8,26.2,22.0,18.2,9.0,68,46,27,30.33,30.01,8,1,0,0.00
2013-1-18,60.9,45.4,31.4,13.0,9.6,6.0,41,24,15,30.04,29.75,16,5,0,0.00
2013-1-19,63.0,49.4,38.3,15.0,9.7,4.0,38,21,12,30.01,29.74,30,4,0,0.00
2013-1-20,48.8,37.3,25.9,28.0,14.5,9.0,84,41,22,30.14,29.85,16,2,0,0.00
2013-1-21,58.7,40.6,18.9,19.0,12.2,3.0,82,40,15,30.17,29.75,18,5,0,0.00
2013-1-22,64.4,52.8,36.2,10.0,0.3,-7.0,25,12,8,29.89,29.69,33,6,0,0.00
2013-1-23,55.5,45.2,34.4,14.0,5.8,-2.0,27,20,16,29.99,29.84,6,1,0,0.00
2013-1-24,67.8,50.5,31.9,29.0,19.0,5.0,44,30,17,29.90,29.61,22,6,0,0.00
2013-1-25,59.6,46.2,32.6,31.0,27.5,23.0,70,50,33,29.95,29.72,9,1,0,0.00
2013-1-26,56.9,44.0,33.2,37.0,29.7,25.0,84,59,36,29.81,29.46,6,1,0,0.00
2013-1-27,58.1,45.4,32.9,38.0,33.2,22.0,92,65,41,29.56,29.40,9,1,0,0.00
2013-1-28,59.0,39.0,27.0,31.0,25.6,18.0,94,63,27,29.61,29.18,15,3,0,0.00
2013-1-29,32.8,25.6,19.7,25.0,17.5,12.0,92,73,47,29.93,29.46,13,2,0,0.13
2013-1-30,39.7,30.3,16.2,18.0,13.5,5.0,78,51,40,29.91,29.71,28,8,0,0.00
2013-1-31,48.6,40.1,28.2,24.0,19.0,16.0,74,44,30,29.98,29.70,19,6,0,0.00
2013-2-1,50.2,37.3,23.4,25.0,20.0,16.0,84,52,30,30.02,29.82,27,5,0,0.00
2013-2-2,60.9,40.5,24.2,22.0,17.2,12.0,69,43,16,30.20,29.93,20,3,0,0.00
2013-2-3,59.9,41.9,26.6,20.0,14.1,7.0,62,35,18,30.00,29.66,12,2,0,0.00
2013-2-4,53.9,42.2,26.0,18.0,13.1,8.0,55,32,18,29.80,29.60,22,4,0,0.00
2013-2-5,60.9,47.8,37.5,22.0,19.4,16.0,45,33,22,29.81,29.54,12,3,0,0.00
2013-2-6,57.2,43.6,34.6,34.0,26.3,21.0,94,54,29,29.84,29.50,9,2,0,0.07
2013-2-7,47.2,37.1,27.5,33.0,24.2,13.0,94,63,36,30.05,29.83,13,2,0,0.00
2013-2-8,56.3,38.8,26.6,22.0,16.5,11.0,61,42,23,29.85,29.43,12,2,0,0.00
2013-2-9,41.6,31.5,25.0,30.0,21.5,14.0,90,68,47,29.57,29.40,11,2,0,0.01
2013-2-10,39.0,28.7,22.4,23.0,17.3,11.0,88,65,37,29.97,29.46,10,2,0,0.01
2013-2-11,31.1,24.0,18.1,23.0,16.9,14.0,94,75,56,30.04,29.91,8,1,0,0.00
2013-2-12,45.8,31.5,16.2,13.0,6.5,1.0,75,39,16,30.04,29.86,6,1,0,0.00
2013-2-13,48.1,37.8,24.2,18.0,14.1,9.0,55,39,26,29.89,29.72,31,8,0,0.00
2013-2-14,38.9,28.6,21.9,28.0,20.3,15.0,94,73,44,30.25,29.79,18,2,0,0.00
2013-2-15,42.7,27.4,16.5,21.0,16.5,13.0,87,66,34,30.32,30.11,11,2,0,0.01
2013-2-16,55.0,45.8,28.4,22.0,16.3,12.0,58,32,23,30.10,29.71,29,9,0,0.00
2013-2-17,63.1,45.5,32.1,19.0,9.9,2.0,56,27,10,29.71,29.22,27,4,0,0.00
2013-2-18,41.5,32.6,25.0,22.0,13.0,4.0,83,49,23,29.99,29.48,21,5,0,0.00
2013-2-19,45.0,31.6,20.7,15.0,11.5,6.0,60,44,27,30.00,29.62,7,1,0,0.00
2013-2-20,39.4,27.5,20.8,28.0,19.7,15.0,93,74,45,29.68,29.51,7,2,0,0.00
2013-2-21,26.1,21.8,16.3,23.0,18.7,14.0,93,88,78,29.91,29.59,9,2,0,0.16
2013-2-22,36.7,25.3,15.5,23.0,17.2,12.0,89,73,53,29.94,29.77,7,1,0,0.03
2013-2-23,50.4,34.1,20.4,28.0,18.1,6.0,92,55,32,29.75,29.38,10,3,0,0.00
2013-2-24,31.3,26.6,23.6,30.0,25.2,22.0,95,94,92,30.08,29.51,16,5,0,0.01
2013-2-25,36.8,25.4,14.3,22.0,16.9,12.0,94,73,41,30.10,29.77,8,2,0,0.14
2013-2-26,33.6,27.3,19.5,28.0,20.3,13.0,90,75,61,30.06,29.69,20,3,0,0.03
2013-2-27,39.5,29.3,19.5,16.0,12.4,4.0,76,51,34,30.21,30.05,11,2,0,0.00
2013-2-28,47.3,34.1,19.2,18.0,12.3,5.0,63,41,27,30.23,30.00,26,7,0,0.00
2013-3-1,53.3,39.6,28.1,25.0,21.0,16.0,66,49,33,30.19,30.00,16,4,0,0.00
2013-3-2,64.2,50.3,33.0,31.0,26.0,22.0,67,41,24,30.14,29.73,19,3,0,0.00
2013-3-3,68.1,51.3,39.3,28.0,25.6,21.0,61,39,21,29.71,29.30,12,3,0,0.00
2013-3-4,48.3,31.7,20.8,29.0,24.0,14.0,93,75,44,30.18,29.31,10,4,0,0.01
2013-3-5,43.3,29.4,13.0,23.0,17.3,9.0,85,63,39,30.30,30.00,8,1,0,0.01
2013-3-6,63.2,40.4,22.5,30.0,22.5,18.0,86,55,19,30.03,29.59,6,1,0,0.00
2013-3-7,67.4,50.5,36.0,35.0,25.6,18.0,58,40,21,29.72,29.53,16,3,0,0.00
2013-3-8,51.3,40.4,32.0,33.0,30.2,27.0,89,68,45,29.74,29.46,6,1,0,0.00
2013-3-9,35.3,31.3,23.5,32.0,29.6,22.0,97,93,83,30.03,29.40,15,1,0,0.06
2013-3-10,38.7,21.0,-90.0,34.0,6.7,-99.9,97,77,55,30.89,29.88,8,2,0,0.16
2013-3-11,55.0,42.7,31.0,31.0,24.5,17.0,94,53,32,30.66,29.60,28,5,0,0.00
2013-3-12,37.1,31.0,25.8,30.0,27.4,24.0,95,87,71,30.26,29.93,5,0,0,0.14
2013-3-13,67.3,50.5,29.7,38.0,28.8,24.0,89,48,23,30.18,29.87,16,4,0,0.00
2013-3-14,75.4,58.8,49.0,32.0,25.8,20.0,40,30,14,29.98,29.74,13,3,0,0.00
2013-3-15,74.3,62.5,51.7,30.0,26.5,22.0,37,26,17,29.76,29.40,18,5,0,0.00
2013-3-16,55.8,47.8,40.1,37.0,32.4,26.0,74,56,36,29.71,29.48,9,3,0,0.00
2013-3-17,59.0,45.1,34.8,31.0,25.2,16.0,70,48,23,29.58,29.23,22,6,0,0.00
2013-3-18,50.8,40.8,29.3,22.0,15.5,10.0,58,37,25,29.77,29.57,23,7,0,0.00
2013-3-19,55.4,43.4,29.6,21.0,10.3,-2.0,61,29,10,30.21,29.68,28,7,0,0.00
2013-3-20,58.0,40.5,22.9,27.0,21.6,17.0,82,51,27,30.18,29.44,19,1,0,0.00
2013-3-21,59.0,44.4,36.8,32.0,22.5,14.0,61,43,24,29.56,29.19,28,7,0,0.00
2013-3-22,53.0,35.7,26.8,29.0,22.6,15.0,95,63,33,29.73,29.38,22,4,0,0.00
2013-3-23,27.2,20.5,15.2,26.0,18.8,13.0,95,92,90,30.26,29.71,25,4,0,0.00
2013-3-24,27.6,19.9,8.6,26.0,17.8,6.0,94,91,88,30.23,30.08,6,1,0,0.06
2013-3-25,32.4,23.9,16.0,22.0,17.0,13.0,100,77,49,30.30,30.16,8,1,0,0.02
2013-3-26,55.7,35.6,19.7,32.0,21.6,13.0,81,59,31,30.17,29.72,9,2,0,0.00
2013-3-27,59.0,44.3,32.0,37.0,31.2,25.0,80,62,41,29.92,29.75,11,2,0,0.00
2013-3-28,67.2,48.5,34.2,37.0,33.1,30.0,90,60,27,29.91,29.74,10,1,0,0.00
2013-3-29,71.8,52.4,41.2,36.0,31.7,29.0,68,47,24,29.86,29.70,19,3,0,0.00
2013-3-30,68.3,53.0,41.0,39.0,32.1,26.0,82,50,22,29.92,29.65,28,6,0,0.00
2013-3-31,73.6,54.3,35.0,37.0,28.7,18.0,84,45,13,29.90,29.57,13,3,0,0.00
2013-4-1,54.4,43.8,32.5,35.0,31.6,27.0,85,63,45,29.88,29.74,15,5,0,0.00
2013-4-2,41.3,38.3,35.9,37.0,34.1,32.0,100,85,73,29.96,29.80,7,2,0,0.11
2013-4-3,64.3,51.2,36.4,39.0,34.6,30.0,96,58,31,29.98,29.76,8,2,0,0.04
2013-4-4,71.5,55.8,40.4,35.0,31.3,28.0,68,42,23,29.89,29.62,9,2,0,0.00
2013-4-5,74.2,58.4,47.8,37.0,30.5,26.0,59,37,20,29.62,29.28,36,4,0,0.00
2013-4-6,68.4,56.1,46.5,35.0,27.7,24.0,53,34,22,29.63,29.45,28,6,0,0.00
2013-4-7,66.0,55.1,40.9,35.0,30.6,26.0,77,42,25,29.55,29.32,18,6,0,0.00
2013-4-8,68.5,49.0,27.1,37.0,31.9,26.0,94,55,31,29.54,29.06,21,5,0,0.00
2013-4-9,27.0,18.3,13.1,26.0,16.3,11.0,94,91,89,30.28,29.56,14,5,0,0.00
2013-4-10,28.4,19.5,8.8,26.0,16.6,6.0,92,88,84,30.25,29.85,8,2,0,0.09
2013-4-11,59.5,41.1,20.6,42.0,30.6,18.0,96,70,37,29.84,29.55,15,3,0,0.00
2013-4-12,63.0,43.6,34.2,37.0,32.4,24.0,89,68,23,29.77,29.54,15,3,0,0.00
2013-4-13,71.3,51.2,32.3,36.0,29.4,22.0,91,52,18,29.67,29.07,14,4,0,0.00
2013-4-14,52.2,43.5,36.7,39.0,23.4,13.0,91,49,23,29.54,29.12,25,8,0,0.01
2013-4-15,39.1,28.8,23.3,29.0,24.5,16.0,95,86,40,29.99,29.45,12,2,0,0.00
2013-4-16,33.4,28.2,23.4,32.0,26.5,22.0,96,93,91,29.99,29.75,18,5,0,0.26
2013-4-17,32.6,27.0,20.8,32.0,26.0,19.0,97,96,93,30.12,29.80,14,6,0,0.03
2013-4-18,35.1,26.5,16.8,26.0,19.4,13.0,100,77,48,30.15,30.04,13,2,0,0.12
2013-4-19,56.7,43.2,28.8,27.0,20.3,13.0,53,41,30,30.07,29.68,19,3,0,0.00
2013-4-20,65.0,48.9,36.6,37.0,31.1,25.0,73,52,30,29.75,29.55,8,2,0,0.00
2013-4-21,67.1,53.3,41.3,33.0,27.5,25.0,66,39,22,29.81,29.61,14,4,0,0.00
2013-4-22,57.4,35.6,23.5,37.0,28.2,22.0,94,77,43,30.23,29.57,18,4,0,0.01
2013-4-23,32.9,26.0,21.5,29.0,22.9,20.0,94,88,77,30.25,30.08,7,1,0,0.25
2013-4-24,57.5,41.0,24.0,28.0,20.6,16.0,83,49,23,30.16,29.92,21,2,0,0.00
2013-4-25,69.3,51.0,34.4,33.0,23.1,15.0,59,36,18,29.96,29.59,7,2,0,0.00
2013-4-26,69.5,57.0,43.3,27.0,24.9,22.0,49,31,19,29.88,29.64,11,3,0,0.00
2013-4-27,77.3,63.2,46.9,28.0,24.5,21.0,45,25,14,29.86,29.59,14,4,0,0.00
2013-4-28,82.9,68.0,51.5,36.0,29.4,23.0,40,25,15,29.60,29.35,21,4,0,0.00
2013-4-29,83.5,67.5,49.0,38.0,33.0,27.0,60,31,16,29.45,29.10,12,3,0,0.00
2013-4-30,65.0,52.4,37.1,41.0,35.3,27.0,92,55,24,29.77,29.12,15,4,0,0.02
2013-5-1,37.6,30.4,23.4,36.0,29.3,22.0,97,95,92,30.60,29.76,12,3,0,0.19
2013-5-2,45.4,33.2,22.2,37.0,25.4,20.0,97,77,39,30.67,30.30,8,1,0,0.09
2013-5-3,65.4,48.7,30.5,31.0,27.1,23.0,77,47,24,30.30,29.79,10,2,0,0.00
2013-5-4,63.9,51.1,38.9,35.0,30.5,26.0,69,47,31,29.91,29.76,9,3,0,0.00
2013-5-5,59.0,48.7,38.2,34.0,28.9,25.0,61,48,33,29.96,29.81,8,2,0,0.00
2013-5-6,71.6,55.1,41.0,39.0,35.4,31.0,73,50,30,29.81,29.55,10,3,0,0.00
2013-5-7,74.8,57.4,47.1,47.0,40.2,36.0,87,56,29,29.66,29.47,11,2,0,0.07
2013-5-8,65.7,49.9,45.6,49.0,42.5,37.0,94,77,43,29.83,29.56,18,5,0,0.44
2013-5-9,60.3,49.7,44.7,48.0,43.5,38.0,94,80,54,29.96,29.72,18,3,0,0.14
2013-5-10,68.7,55.3,41.1,46.0,39.4,34.0,84,57,34,29.98,29.85,15,3,0,0.02
2013-5-11,71.6,57.7,46.4,43.0,39.5,36.0,73,52,30,30.09,29.83,15,3,0,0.03
2013-5-12,82.5,67.9,52.4,41.0,38.2,34.0,61,35,23,29.90,29.61,11,3,0,0.00
2013-5-13,89.2,74.1,60.7,49.0,41.2,35.0,43,31,20,29.70,29.49,11,2,0,0.00
2013-5-14,88.5,73.3,65.0,49.0,41.3,36.0,40,32,18,29.52,29.39,19,5,0,0.00
2013-5-15,87.2,66.7,58.5,53.0,44.7,38.0,80,49,23,29.63,29.34,15,3,0,0.08
2013-5-16,85.6,68.3,50.7,49.0,43.8,40.0,82,45,21,29.55,29.29,12,2,0,0.00
2013-5-17,88.6,72.4,54.8,46.0,36.2,27.0,56,31,12,29.45,29.22,18,3,0,0.00
2013-5-18,80.4,66.2,55.8,42.0,34.8,27.0,56,32,19,29.44,29.28,13,2,0,0.00
2013-5-19,74.7,61.0,52.5,44.0,34.8,30.0,58,39,23,29.46,29.31,16,5,0,0.00
2013-5-20,64.4,53.8,47.7,52.0,43.0,33.0,91,68,44,29.69,29.41,15,3,0,0.29
2013-5-21,73.1,57.9,42.6,43.0,37.4,33.0,90,52,25,29.77,29.49,18,4,0,0.00
2013-5-22,79.5,62.4,46.3,51.0,40.3,34.0,78,48,26,29.64,29.43,10,2,0,0.03
2013-5-23,74.8,60.1,46.9,51.0,47.8,45.0,92,66,41,29.73,29.53,12,2,0,0.00
2013-5-24,88.0,68.3,47.8,56.0,45.8,37.0,90,52,17,29.60,29.41,15,3,0,0.00
2013-5-25,90.2,72.9,54.2,54.0,41.2,25.0,79,38,11,29.54,29.32,7,2,0,0.00
2013-5-26,88.1,72.6,59.3,45.0,35.4,27.0,47,27,13,29.47,29.30,12,2,0,0.00
2013-5-27,87.2,71.2,59.4,40.0,33.1,26.0,47,26,13,29.41,29.21,18,3,0,0.00
2013-5-28,83.4,66.5,51.2,50.0,39.6,30.0,64,39,19,29.40,29.07,12,2,0,0.00
2013-5-29,68.2,57.6,48.4,55.0,45.5,34.0,97,67,35,29.39,29.14,14,3,0,0.41
2013-5-30,70.7,60.3,48.9,37.0,33.1,29.0,60,38,22,29.49,29.29,24,8,0,0.00
2013-5-31,72.9,62.5,50.6,32.0,25.3,20.0,41,25,14,29.60,29.44,27,10,0,0.00
2013-6-1,72.6,59.7,47.1,42.0,38.3,25.0,73,47,27,29.83,29.60,12,2,0,0.00
2013-6-2,84.0,66.0,46.4,46.0,38.6,34.0,66,40,19,29.83,29.35,6,1,0,0.00
2013-6-3,92.2,76.2,56.5,43.0,35.9,30.0,44,25,12,29.37,29.18,21,5,0,0.00
2013-6-4,74.8,62.6,50.1,58.0,47.0,28.0,92,60,25,29.85,29.38,16,3,0,0.16
2013-6-5,59.5,52.2,46.9,49.0,46.6,43.0,95,82,67,29.93,29.78,8,1,0,0.00
2013-6-6,82.4,65.5,45.2,51.0,44.3,40.0,88,51,25,29.83,29.58,10,1,0,0.00
2013-6-7,83.6,67.7,54.2,50.0,44.3,41.0,66,45,27,29.67,29.32,9,1,0,0.00
2013-6-8,79.7,70.6,61.3,52.0,45.2,40.0,53,41,32,29.62,29.25,14,4,0,0.00
2013-6-9,90.8,71.9,52.3,47.0,43.4,39.0,71,40,20,29.63,29.39,8,2,0,0.00
2013-6-10,97.4,81.6,63.0,51.0,43.3,38.0,47,28,15,29.39,29.23,15,2,0,0.00
2013-6-11,99.8,83.6,67.1,49.0,37.4,29.0,43,22,9,29.36,29.16,18,5,0,0.00
2013-6-12,94.6,78.1,60.9,53.0,39.5,29.0,56,26,16,29.63,29.36,8,2,0,0.00
2013-6-13,84.6,71.4,56.3,62.0,54.5,43.0,90,58,31,29.65,29.39,18,3,0,0.00
2013-6-14,93.4,78.5,64.8,49.0,44.6,39.0,55,32,16,29.45,29.31,14,4,0,0.00
2013-6-15,84.7,71.0,56.8,56.0,50.4,47.0,71,50,33,29.64,29.41,14,3,0,0.00
2013-6-16,84.8,69.5,59.0,53.0,48.1,41.0,77,49,26,29.73,29.52,13,2,0,0.08
2013-6-17,82.3,68.8,54.8,54.0,46.4,39.0,67,46,30,29.73,29.56,10,2,0,0.00
2013-6-18,86.5,69.1,54.6,55.0,51.9,45.0,89,58,28,29.70,29.41,16,3,0,0.00
2013-6-19,96.9,75.0,55.3,53.0,45.1,26.0,79,42,12,29.53,29.13,12,2,0,0.00
2013-6-20,93.5,75.9,61.9,50.0,38.6,23.0,61,28,16,29.43,29.19,11,3,0,0.00
2013-6-21,98.0,77.7,60.5,53.0,41.4,33.0,51,30,13,29.44,29.21,16,3,0,0.00
2013-6-22,87.3,72.2,57.1,53.0,49.6,46.0,69,47,26,29.49,29.24,10,2,0,0.00
2013-6-23,88.7,69.1,55.3,54.0,49.2,43.0,83,52,25,29.58,29.34,10,3,0,0.17
2013-6-24,90.1,72.9,58.4,54.0,46.1,33.0,70,43,17,29.48,29.23,13,3,0,0.00
2013-6-25,93.2,78.4,62.4,45.0,40.3,32.0,41,26,18,29.48,29.24,14,2,0,0.00
2013-6-26,96.4,81.2,62.0,49.0,44.8,40.0,54,30,17,29.57,29.42,11,2,0,0.00
2013-6-27,99.5,84.6,69.9,54.0,46.6,40.0,46,28,17,29.63,29.48,8,2,0,0.00
2013-6-28,94.5,79.3,62.2,60.0,53.8,45.0,85,43,23,29.79,29.55,21,3,0,0.09
2013-6-29,85.5,73.2,61.3,60.0,55.4,49.0,79,55,36,29.77,29.58,16,2,0,0.00
2013-6-30,79.3,69.8,62.5,59.0,56.4,53.0,77,63,48,29.76,29.64,10,2,0,0.00
2013-7-1,85.0,70.7,58.2,59.0,54.5,50.0,93,59,38,29.83,29.71,10,2,0,0.15
2013-7-2,86.3,71.2,55.5,58.0,53.5,46.0,96,59,31,29.81,29.61,11,2,0,0.01
2013-7-3,92.4,74.6,57.1,54.0,50.1,48.0,75,45,25,29.64,29.40,13,2,0,0.00
2013-7-4,94.1,77.6,64.0,57.0,50.2,45.0,60,40,23,29.52,29.34,15,2,0,0.00
2013-7-5,94.3,75.7,65.0,58.0,53.2,48.0,70,47,27,29.44,29.26,16,2,0,0.00
2013-7-6,92.5,76.4,68.5,63.0,52.8,49.0,77,46,24,29.49,29.28,19,4,0,0.08
2013-7-7,84.8,75.2,65.1,59.0,54.8,51.0,68,50,38,29.57,29.41,9,2,0,0.00
2013-7-8,95.7,79.5,65.4,59.0,52.3,48.0,69,41,23,29.57,29.44,15,3,0,0.00
2013-7-9,98.0,81.0,70.0,55.0,48.9,45.0,51,34,19,29.64,29.52,14,2,0,0.00
2013-7-10,89.2,76.0,62.5,60.0,54.5,47.0,68,48,32,29.70,29.49,10,3,0,0.00
2013-7-11,103.4,78.5,62.5,61.0,56.1,50.0,82,51,18,29.61,29.30,13,3,0,0.23
2013-7-12,94.6,76.6,66.6,64.0,57.5,52.0,87,54,28,29.54,29.30,16,3,0,0.10
2013-7-13,92.1,71.7,59.9,64.0,60.8,58.0,96,73,35,29.78,29.46,13,2,0,2.62
2013-7-14,83.5,70.5,59.5,62.0,60.0,56.0,94,72,46,29.78,29.58,12,3,0,0.00
2013-7-15,82.9,68.0,62.6,68.0,60.5,51.0,97,79,50,29.74,29.62,18,2,0,0.45
2013-7-16,87.4,71.6,56.7,59.0,53.5,49.0,88,56,35,29.75,29.64,15,3,0,0.00
2013-7-17,93.5,76.3,58.7,60.0,55.2,51.0,78,51,28,29.76,29.55,9,1,0,0.00
2013-7-18,97.7,77.9,66.6,60.0,55.2,52.0,66,48,27,29.65,29.48,20,3,0,0.00
2013-7-19,87.5,75.3,65.6,60.0,57.6,54.0,73,56,34,29.68,29.53,10,2,0,0.00
2013-7-20,95.9,74.8,61.4,61.0,55.6,51.0,82,55,25,29.61,29.38,16,2,0,0.00
2013-7-21,92.3,76.0,58.3,64.0,57.9,52.0,83,56,35,29.53,29.32,8,1,0,0.00
2013-7-22,98.2,81.7,66.7,62.0,53.6,42.0,70,40,22,29.47,29.30,12,2,0,0.00
2013-7-23,92.0,80.2,69.5,59.0,48.0,31.0,63,34,21,29.58,29.34,8,1,0,0.00
2013-7-24,84.5,73.7,63.2,64.0,56.9,49.0,72,57,36,29.67,29.53,23,2,0,0.00
2013-7-25,82.7,67.1,58.3,61.0,55.9,52.0,92,69,40,29.89,29.62,14,2,0,0.08
2013-7-26,91.9,73.1,58.4,57.0,52.2,48.0,76,51,27,29.89,29.62,15,1,0,0.00
2013-7-27,82.7,67.9,58.0,61.0,54.5,49.0,95,64,43,29.69,29.57,8,2,0,0.09
2013-7-28,70.8,63.3,59.0,62.0,59.3,57.0,98,87,70,29.64,29.49,6,1,0,0.01
2013-7-29,73.8,64.4,59.0,64.0,58.5,52.0,97,82,60,29.74,29.51,10,1,0,0.07
2013-7-30,92.0,72.9,58.2,57.0,53.3,50.0,77,53,28,29.81,29.64,14,2,0,0.02
2013-7-31,92.1,75.3,61.4,57.0,53.3,49.0,75,50,24,29.89,29.60,7,1,0,0.00
2013-8-1,93.1,72.9,61.4,60.0,54.7,48.0,84,55,21,29.72,29.43,15,2,0,0.03
2013-8-2,95.7,76.9,60.8,57.0,53.3,47.0,76,47,23,29.54,29.39,13,2,0,0.00
2013-8-3,93.9,72.8,59.0,61.0,56.6,52.0,95,61,27,29.85,29.46,15,2,0,0.52
2013-8-4,91.1,73.8,59.0,62.0,55.1,50.0,79,55,29,29.74,29.56,8,1,0,0.00
2013-8-5,93.3,75.8,64.9,58.0,53.5,46.0,65,48,28,29.60,29.46,9,1,0,0.00
2013-8-6,93.8,73.8,62.7,58.0,51.3,47.0,70,48,22,29.65,29.40,19,3,0,0.02
2013-8-7,74.3,66.1,60.6,57.0,53.5,48.0,80,65,48,29.69,29.46,11,2,0,0.00
2013-8-8,80.9,65.1,57.5,59.0,55.8,47.0,95,74,48,29.79,29.61,12,2,0,0.00
2013-8-9,82.4,65.0,54.1,55.0,51.0,47.0,83,63,33,29.84,29.69,11,2,0,0.00
2013-8-10,89.4,70.1,55.4,55.0,49.5,44.0,79,51,26,29.85,29.60,12,1,0,0.01
2013-8-11,86.3,72.4,60.7,56.0,51.1,47.0,70,49,29,29.79,29.62,8,2,0,0.00
2013-8-12,85.1,69.1,57.5,58.0,53.7,48.0,94,61,33,29.83,29.64,13,2,0,0.32
2013-8-13,83.8,67.1,55.3,56.0,52.6,48.0,92,62,38,29.84,29.66,16,2,0,0.00
2013-8-14,86.6,68.4,54.4,57.0,51.8,48.0,88,59,29,29.82,29.64,11,1,0,0.02
2013-8-15,89.9,73.1,60.7,56.0,47.8,39.0,70,42,24,29.71,29.57,10,1,0,0.00
2013-8-16,95.3,76.7,59.6,53.0,47.5,43.0,61,38,17,29.71,29.56,6,1,0,0.00
2013-8-17,96.8,78.8,59.8,55.0,47.6,40.0,63,37,14,29.66,29.47,4,0,0,0.00
2013-8-18,96.9,77.7,63.0,59.0,51.1,43.0,76,42,20,29.63,29.47,13,1,0,0.00
2013-8-19,98.4,79.1,63.7,56.0,49.7,45.0,62,38,19,29.63,29.47,5,0,0,0.00
2013-8-20,97.5,82.2,66.7,58.0,47.9,39.0,51,32,13,29.50,29.36,8,2,0,0.00
2013-8-21,90.4,77.2,67.7,60.0,51.7,45.0,66,42,27,29.64,29.43,10,1,0,0.00
2013-8-22,84.8,69.9,61.7,64.0,58.4,55.0,85,68,48,29.78,29.60,11,2,0,0.36
2013-8-23,91.8,72.3,62.2,62.0,57.1,52.0,87,61,32,29.72,29.43,13,2,0,0.16
2013-8-24,90.8,73.0,61.8,62.0,55.3,50.0,76,56,32,29.64,29.46,10,1,0,0.02
2013-8-25,93.7,76.5,64.2,58.0,55.0,51.0,68,50,28,29.68,29.52,13,1,0,0.00
2013-8-26,94.8,76.7,62.3,60.0,57.1,54.0,79,53,30,29.67,29.53,14,2,0,0.00
2013-8-27,91.4,78.3,66.8,62.0,57.1,53.0,64,49,33,29.66,29.47,6,1,0,0.00
2013-8-28,95.1,79.4,65.6,60.0,55.2,52.0,68,46,24,29.60,29.48,6,0,0,0.00
2013-8-29,98.1,79.9,65.8,58.0,52.9,49.0,61,41,23,29.67,29.52,20,2,0,0.00
2013-8-30,91.8,75.8,70.1,60.0,54.9,51.0,60,49,31,29.70,29.53,14,2,0,0.02
2013-8-31,93.9,76.7,66.8,59.0,53.3,50.0,68,46,27,29.65,29.46,16,2,0,0.00
2013-9-1,79.8,69.3,60.8,62.0,58.3,51.0,89,69,52,29.76,29.55,10,1,0,0.05
2013-9-2,90.4,75.1,60.2,61.0,55.0,50.0,80,52,28,29.70,29.49,5,0,0,0.00
2013-9-3,94.5,79.0,66.9,59.0,54.5,51.0,66,44,27,29.63,29.47,10,1,0,0.00
2013-9-4,95.9,78.1,69.1,60.0,55.5,51.0,66,47,29,29.69,29.55,9,1,0,0.00
2013-9-5,97.3,78.1,64.7,59.0,54.2,50.0,71,46,26,29.75,29.53,7,1,0,0.00
2013-9-6,100.5,80.8,65.6,58.0,52.3,48.0,64,39,19,29.64,29.45,14,2,0,0.00
2013-9-7,95.2,79.3,63.8,57.0,51.6,44.0,64,40,22,29.64,29.44,15,1,0,0.00
2013-9-8,94.7,76.3,62.7,55.0,51.8,46.0,63,44,25,29.55,29.31,8,1,0,0.00
2013-9-9,85.0,49.8,-77.4,60.0,28.0,-99.9,99,53,38,30.47,29.34,13,2,0,1.59
2013-9-10,67.4,60.2,57.5,61.0,59.2,57.0,100,97,77,30.41,29.57,7,1,0,0.42
2013-9-11,71.9,61.8,59.0,66.0,61.0,59.0,100,97,72,29.83,29.74,6,1,0,0.87
2013-9-12,64.0,60.5,58.4,63.0,60.0,58.0,100,98,91,29.89,29.75,9,2,0,1.09
2013-9-13,81.6,63.7,57.5,63.0,60.0,58.0,100,89,49,29.80,29.41,9,0,0,0.70
2013-9-14,82.2,64.4,57.8,63.0,57.9,53.0,99,81,45,29.60,29.42,13,1,0,0.00
2013-9-15,62.0,57.7,54.8,57.0,55.8,53.0,98,93,82,29.94,29.56,10,1,0,0.11
2013-9-16,79.6,64.0,54.4,58.0,56.2,54.0,99,78,47,29.93,29.60,5,0,0,0.00
2013-9-17,85.2,70.7,57.0,54.0,47.9,43.0,83,47,23,29.64,29.34,9,1,0,0.00
2013-9-18,86.9,70.4,60.5,54.0,48.1,43.0,66,46,30,29.44,29.27,18,3,0,0.00
2013-9-19,67.4,61.3,53.3,47.0,44.3,38.0,70,54,45,29.83,29.39,10,1,0,0.00
2013-9-20,76.0,61.5,48.3,49.0,46.1,44.0,85,60,35,29.87,29.62,8,1,0,0.00
2013-9-21,85.6,67.6,50.8,52.0,44.9,38.0,76,47,24,29.65,29.31,9,1,0,0.00
2013-9-22,80.1,65.8,54.3,54.0,47.5,40.0,93,54,36,29.36,29.13,13,2,0,0.06
2013-9-23,66.7,57.8,49.6,53.0,40.3,32.0,96,57,32,29.72,29.12,25,7,0,0.29
2013-9-24,80.5,61.9,44.2,43.0,37.6,30.0,74,44,23,29.83,29.45,6,1,0,0.00
2013-9-25,85.8,67.1,44.6,53.0,40.4,32.0,76,41,20,29.45,29.00,10,1,0,0.00
2013-9-26,71.3,59.9,47.1,49.0,44.6,37.0,79,59,31,29.39,29.02,7,1,0,0.00
2013-9-27,53.5,47.7,40.6,50.0,46.0,40.0,98,94,78,29.80,29.32,8,2,0,0.22
2013-9-28,70.1,53.6,39.6,40.0,33.7,27.0,92,50,27,29.90,29.72,13,2,0,0.00
2013-9-29,80.1,61.3,45.5,41.0,35.0,29.0,68,40,20,29.77,29.48,13,2,0,0.00
2013-9-30,86.9,68.3,55.7,46.0,40.3,30.0,57,37,22,29.53,29.26,8,2,0,0.00
2013-10-1,77.6,63.7,50.1,48.0,41.7,33.0,66,46,33,29.69,29.40,12,2,0,0.00
2013-10-2,77.2,62.8,49.5,47.0,42.6,38.0,75,51,25,29.62,29.46,8,1,0,0.00
2013-10-3,67.5,54.4,43.7,48.0,43.5,40.0,95,69,44,29.54,29.37,11,2,0,0.02
2013-10-4,48.6,38.6,33.3,48.0,34.8,28.0,97,87,65,30.10,29.39,14,4,0,0.19
2013-10-5,62.9,45.9,28.9,30.0,23.0,16.0,88,48,20,30.11,29.88,16,3,0,0.00
2013-10-6,70.5,54.6,35.7,39.0,30.4,16.0,74,42,24,30.03,29.82,7,1,0,0.00
2013-10-7,81.0,61.4,44.2,43.0,34.9,29.0,72,42,17,29.86,29.47,6,1,0,0.00
2013-10-8,80.7,64.2,54.4,45.0,35.9,28.0,49,36,20,29.49,29.24,18,2,0,0.00
2013-10-9,67.7,57.3,49.3,45.0,39.9,33.0,82,54,42,29.63,29.37,12,2,0,0.00
2013-10-10,63.2,51.5,44.1,48.0,44.0,37.0,93,77,58,29.58,29.22,25,2,0,0.02
2013-10-11,62.1,53.5,43.4,41.0,34.7,28.0,84,51,34,29.74,29.12,24,3,0,0.00
2013-10-12,61.1,48.6,40.4,44.0,41.0,38.0,95,77,50,29.96,29.73,9,2,0,0.00
2013-10-13,64.9,50.8,39.0,46.0,41.5,36.0,92,73,48,29.91,29.54,8,1,0,0.00
2013-10-14,60.3,47.4,39.6,45.0,38.6,33.0,89,73,43,29.94,29.47,14,3,0,0.10
2013-10-15,41.4,38.0,35.2,33.0,28.1,25.0,78,67,61,30.16,29.90,7,1,0,0.00
2013-10-16,58.0,42.4,30.4,33.0,29.4,25.0,88,63,37,30.06,29.76,6,1,0,0.00
2013-10-17,53.3,42.7,35.1,34.0,30.8,26.0,78,64,47,29.95,29.77,7,2,0,0.00
2013-10-18,48.6,37.7,31.5,37.0,31.1,27.0,97,79,52,30.04,29.81,10,2,0,0.15
2013-10-19,65.6,51.5,33.2,31.0,26.0,22.0,79,40,23,29.94,29.55,20,4,0,0.00
2013-10-20,56.5,46.0,36.1,38.0,32.0,25.0,94,63,31,29.94,29.47,18,4,0,0.11
2013-10-21,63.1,46.2,31.9,38.0,31.3,27.0,94,61,30,30.05,29.81,16,2,0,0.00
2013-10-22,66.1,53.8,39.3,36.0,32.2,27.0,72,45,30,29.97,29.77,9,2,0,0.00
2013-10-23,67.0,53.8,43.9,37.0,33.6,28.0,68,48,31,29.90,29.77,9,1,0,0.00
2013-10-24,58.8,47.8,36.7,41.0,37.3,33.0,86,68,50,30.05,29.87,7,1,0,0.00
2013-10-25,71.7,52.9,37.2,39.0,35.8,32.0,91,57,29,30.00,29.75,6,1,0,0.00
2013-10-26,62.8,53.0,42.0,39.0,34.3,28.0,70,51,35,30.07,29.79,6,1,0,0.00
2013-10-27,72.3,57.0,40.5,35.0,29.7,26.0,67,38,21,29.79,29.46,11,2,0,0.00
2013-10-28,53.0,38.7,32.8,35.0,32.2,28.0,97,81,38,29.90,29.45,11,2,0,0.03
2013-10-29,41.4,36.2,32.7,39.0,33.8,32.0,98,91,78,29.88,29.69,6,0,0,0.01
2013-10-30,52.4,39.2,32.5,44.0,34.4,23.0,98,84,46,29.73,29.56,18,3,0,0.06
2013-10-31,53.4,46.4,38.1,27.0,23.3,19.0,56,41,32,29.63,29.55,24,9,0,0.00
2013-11-1,53.8,45.4,37.3,34.0,27.8,23.0,74,52,32,30.00,29.59,24,5,0,0.00
2013-11-2,70.3,48.0,30.3,33.0,26.5,20.0,72,46,20,30.02,29.41,6,1,0,0.00
2013-11-3,72.8,53.9,35.9,32.0,22.9,17.0,84,33,15,29.52,29.17,11,3,0,0.00
2013-11-4,46.2,36.2,31.4,32.0,22.9,17.0,89,61,34,29.85,29.52,10,3,0,0.00
2013-11-5,47.8,35.3,30.3,32.0,18.1,5.0,89,52,24,30.05,29.72,21,3,0,0.00
2013-11-6,52.8,41.7,27.1,22.0,16.9,4.0,60,38,28,30.11,29.94,29,5,0,0.00
2013-11-7,61.3,45.9,29.9,30.0,24.6,18.0,69,45,27,30.25,29.72,9,2,0,0.00
2013-11-8,67.5,53.3,38.5,29.0,25.2,23.0,58,36,20,29.71,29.48,13,3,0,0.00
2013-11-9,66.1,50.1,38.5,36.0,29.6,24.0,68,48,24,30.00,29.64,8,2,0,0.00
2013-11-10,70.4,51.5,32.7,33.0,27.8,23.0,81,45,21,30.05,29.82,6,1,0,0.00
2013-11-11,70.9,47.3,31.8,35.0,27.3,23.0,89,52,19,30.36,29.81,23,3,0,0.00
2013-11-12,62.0,45.6,31.9,33.0,30.2,26.0,90,59,32,30.49,30.08,7,1,0,0.00
2013-11-13,71.7,54.9,39.0,26.0,21.2,14.0,56,29,14,30.09,29.59,16,3,0,0.00
2013-11-14,58.3,50.6,41.9,35.0,30.2,23.0,60,47,29,29.80,29.48,18,4,0,0.00
2013-11-15,66.0,50.8,36.2,29.0,21.5,14.0,56,34,19,29.47,29.12,12,2,0,0.00
2013-11-16,61.1,47.4,37.0,38.0,25.2,19.0,81,45,22,29.26,28.98,14,3,0,0.00
2013-11-17,56.6,45.5,36.6,35.0,22.1,19.0,68,41,25,29.82,29.23,23,6,0,0.00
2013-11-18,67.5,46.7,28.8,25.0,20.0,18.0,65,38,17,29.96,29.69,9,2,0,0.00
2013-11-19,63.2,49.7,36.3,31.0,23.6,15.0,56,37,23,29.73,29.41,8,2,0,0.00
2013-11-20,60.0,50.1,31.2,31.0,28.2,25.0,80,44,30,29.77,29.41,14,2,0,0.00
2013-11-21,29.7,18.4,14.3,26.0,15.4,11.0,92,88,84,30.65,29.79,10,3,0,0.00
2013-11-22,33.0,26.8,17.4,25.0,18.9,13.0,86,73,52,30.63,30.41,8,2,0,0.05
2013-11-23,35.4,29.3,25.5,29.0,20.6,18.0,89,70,57,30.55,30.21,6,1,0,0.00
2013-11-24,40.7,31.1,23.5,30.0,24.2,20.0,91,76,43,30.21,29.84,7,1,0,0.00
2013-11-25,42.2,37.6,31.9,31.0,24.8,18.0,80,61,39,30.18,29.85,9,2,0,0.00
2013-11-26,53.0,39.0,29.9,26.0,22.7,20.0,74,55,30,30.27,30.04,6,1,0,0.00
2013-11-27,67.5,45.9,29.6,27.0,22.4,18.0,69,43,21,30.04,29.72,9,2,0,0.00
2013-11-28,50.4,40.2,31.5,28.0,25.6,21.0,78,57,42,30.02,29.82,8,1,0,0.00
2013-11-29,64.4,48.3,31.1,29.0,23.7,20.0,82,42,21,29.96,29.79,13,3,0,0.00
2013-11-30,62.9,48.4,37.1,22.0,18.4,14.0,44,31,19,29.97,29.78,10,2,0,0.00
2013-12-1,60.3,48.6,33.8,29.0,22.1,15.0,50,36,24,29.90,29.53,25,4,0,0.00
2013-12-2,59.7,52.8,45.7,28.0,25.1,23.0,46,35,28,29.54,29.19,30,8,0,0.00
2013-12-3,56.2,38.2,13.2,31.0,20.9,10.0,86,54,33,29.60,29.09,24,6,0,0.00
2013-12-4,14.4,9.4,2.4,12.0,6.1,-2.0,95,86,83,30.21,29.60,6,1,0,0.00
2013-12-5,10.7,3.3,-2.4,8.0,-0.9,-6.0,88,82,77,30.33,30.17,6,1,0,0.01
2013-12-6,12.8,3.9,-1.6,10.0,-0.3,-6.0,88,83,72,30.46,30.27,5,0,0,0.00
2013-12-7,15.9,4.7,-0.9,14.0,0.9,-5.0,90,84,76,30.39,29.91,6,0,0,0.00
2013-12-8,23.0,11.0,2.8,18.0,6.2,-1.0,91,81,66,30.14,29.84,7,1,0,0.01
2013-12-9,26.4,16.2,1.7,7.0,3.0,-2.0,92,60,33,30.25,30.02,23,3,0,0.00
2013-12-10,46.7,32.7,17.7,28.0,12.7,1.0,67,45,30,30.10,29.75,23,4,0,0.04
2013-12-11,40.2,26.3,15.1,21.0,16.4,11.0,86,68,44,30.32,30.09,8,1,0,0.00
2013-12-12,60.8,37.9,23.6,25.0,18.4,10.0,74,48,21,30.21,29.69,7,1,0,0.00
2013-12-13,51.4,38.1,29.4,23.0,18.3,15.0,65,47,26,29.94,29.60,9,2,0,0.00
2013-12-14,47.1,36.2,24.3,20.0,17.8,14.0,75,50,31,30.19,29.94,12,3,0,0.00
2013-12-15,56.9,48.0,38.3,24.0,20.5,17.0,47,34,25,29.97,29.80,28,7,0,0.00
2013-12-16,67.0,52.1,36.4,24.0,18.6,12.0,45,28,15,29.95,29.71,12,3,0,0.00
2013-12-17,65.5,49.0,32.1,24.0,18.9,15.0,54,33,20,30.11,29.71,13,4,0,0.00
2013-12-18,69.1,55.6,45.8,22.0,18.2,16.0,32,24,16,29.71,29.33,11,3,0,0.00
2013-12-19,48.9,37.5,18.0,27.0,21.7,16.0,98,56,33,29.76,29.26,12,3,0,0.00
2013-12-20,25.7,21.2,17.2,22.0,18.5,15.0,92,89,83,29.80,29.64,6,0,0,0.00
2013-12-21,33.2,24.3,15.7,28.0,20.4,14.0,94,86,63,29.83,29.52,9,1,0,0.00
2013-12-22,42.4,28.8,17.9,23.0,17.5,14.0,93,67,34,30.14,29.82,16,5,0,0.03
2013-12-23,49.9,32.3,20.0,26.0,21.9,18.0,94,70,38,30.25,29.87,10,2,0,0.03
2013-12-24,56.9,44.2,29.3,32.0,21.4,7.0,56,41,31,30.10,29.67,16,4,0,0.00
2013-12-25,47.1,33.8,22.2,13.0,11.2,9.0,65,41,23,30.32,30.00,14,3,0,0.00
2013-12-26,57.4,44.8,27.0,29.0,15.9,9.0,54,33,21,30.11,29.95,18,3,0,0.00
2013-12-27,63.4,44.9,31.5,27.0,22.0,18.0,60,42,24,30.11,29.77,7,1,0,0.00
2013-12-28,61.6,40.0,21.9,29.0,24.0,20.0,94,56,27,30.05,29.54,13,3,0,0.00
2013-12-29,38.3,26.1,16.4,24.0,18.3,14.0,93,75,40,30.24,29.77,10,2,0,0.05
2013-12-30,49.2,39.5,30.6,23.0,17.1,14.0,56,41,28,30.07,29.79,21,8,0,0.00
2013-12-31,61.6,46.1,32.1,27.0,21.7,14.0,52,39,27,29.90,29.59,23,5,0,0.00
2014-1-1,45.2,35.3,23.2,35.0,26.8,20.0,95,74,44,30.24,29.54,13,4,0,0.02
2014-1-2,47.6,31.9,18.9,27.0,21.9,15.0,87,69,38,30.24,29.84,7,2,0,0.03